Kuqa, China
Current Conditions -  °F | °C
As of 11:00 AM on Thursday 23 Oct 2014 (Local Time) from ZWWW Reporting Station
Smoke Smoke  
Wind Chill: 55°   Ceiling: Unl
Heat Index: 55°   Visibility: 1.5mi
Dew Point: 41°   Wind: 4mph
Humidity: 58%   Direction: 350°N
Pressure: 30"   Gusts: NA
Location:  41.72°N, 82.95°E
Report Text: ZWWW 230300Z 35002MPS 330V030 2500 FU NSC 13/05 Q1016 NOSIG
Loading
Personal Weather Stations






























Interactive Weather Map
Tropical Storm Tracking
New forecast layout! Learn more

10-Day Weather Forecast

Advertisements
Track Severe Weather on mobile